createdAt,value
2023-03-13T00:01:50.539Z,8.65
2023-03-13T00:04:17.136Z,16.98
2023-03-13T00:06:43.675Z,10.77
2023-03-13T00:09:12.175Z,12.07
2023-03-13T00:11:38.721Z,7.28
2023-03-13T00:14:06.833Z,10.05
2023-03-13T00:16:35.644Z,9.82
2023-03-13T00:19:02.327Z,7.47
2023-03-13T00:21:29.496Z,7.68
2023-03-13T00:23:57.751Z,10.20
2023-03-13T00:26:26.147Z,14.35
2023-03-13T00:28:53.593Z,14.95
2023-03-13T00:31:23.144Z,9.68
2023-03-13T00:33:52.127Z,10.32
2023-03-13T00:36:24.153Z,10.20
2023-03-13T00:38:52.106Z,7.13
2023-03-13T00:41:22.235Z,11.60
2023-03-13T00:43:49.197Z,9.55
2023-03-13T00:46:18.407Z,14.57
2023-03-13T00:48:46.324Z,13.98
2023-03-13T00:51:14.561Z,13.60
2023-03-13T00:53:41.452Z,7.68
2023-03-13T00:56:13.079Z,8.18
2023-03-13T00:58:41.321Z,16.77
2023-03-13T01:01:14.451Z,7.70
2023-03-13T01:03:43.288Z,8.40
2023-03-13T01:06:13.695Z,8.52
2023-03-13T01:08:40.587Z,14.50
2023-03-13T01:11:13.620Z,12.68
2023-03-13T01:13:40.322Z,8.15
2023-03-13T01:16:09.982Z,8.68
2023-03-13T01:18:38.868Z,6.72
2023-03-13T01:21:06.435Z,6.95
2023-03-13T01:23:33.170Z,12.55
2023-03-13T01:26:00.068Z,7.68
2023-03-13T01:28:27.656Z,10.32
2023-03-13T01:30:54.580Z,7.18
2023-03-13T01:33:21.238Z,15.15
2023-03-13T01:35:48.064Z,13.05
2023-03-13T01:38:15.023Z,12.48
2023-03-13T01:40:49.006Z,15.88
2023-03-13T01:43:27.328Z,11.55
2023-03-13T01:46:14.784Z,10.27
2023-03-13T01:49:11.105Z,7.63
2023-03-13T01:51:59.556Z,7.32
2023-03-13T01:54:33.775Z,4.05
2023-03-13T01:59:40.406Z,10.38
2023-03-13T02:02:08.104Z,4.95
2023-03-13T02:04:38.547Z,8.88
2023-03-13T02:07:16.061Z,7.93
2023-03-13T02:09:49.371Z,8.35
2023-03-13T02:12:22.566Z,8.43
2023-03-13T02:14:50.612Z,3.67
2023-03-13T02:17:17.938Z,8.52
2023-03-13T02:19:51.883Z,10.18
2023-03-13T02:22:27.693Z,6.10
2023-03-13T02:25:09.631Z,10.25
2023-03-13T02:27:36.481Z,6.07
2023-03-13T02:30:06.337Z,12.38
2023-03-13T02:32:33.358Z,16.65
2023-03-13T02:35:22.093Z,4.72
2023-03-13T02:37:53.612Z,3.20
2023-03-13T02:40:27.778Z,8.70
2023-03-13T02:42:59.002Z,6.40
2023-03-13T02:45:25.713Z,15.50
2023-03-13T02:47:52.502Z,4.95
2023-03-13T02:50:19.793Z,2.78
2023-03-13T02:52:54.873Z,7.50
2023-03-13T02:55:29.461Z,5.43
2023-03-13T02:57:56.330Z,7.05
2023-03-13T03:00:26.790Z,13.27
2023-03-13T03:02:55.925Z,12.70
2023-03-13T03:05:23.059Z,8.70
2023-03-13T03:07:51.170Z,14.45
2023-03-13T03:10:18.807Z,7.38
2023-03-13T03:12:45.721Z,10.63
2023-03-13T03:15:13.658Z,4.18
2023-03-13T03:17:44.582Z,5.95
2023-03-13T03:20:12.214Z,9.40
2023-03-13T03:22:42.034Z,6.15
2023-03-13T03:25:09.629Z,14.23
2023-03-13T03:27:36.552Z,12.18
2023-03-13T03:30:07.259Z,14.15
2023-03-13T03:32:35.648Z,9.18
2023-03-13T03:35:02.859Z,10.73
2023-03-13T03:37:29.620Z,10.18
2023-03-13T03:39:56.976Z,6.03
2023-03-13T03:42:23.831Z,11.00
2023-03-13T03:44:50.490Z,11.20
2023-03-13T03:47:18.199Z,11.50
2023-03-13T03:49:47.502Z,10.85
2023-03-13T03:52:15.231Z,8.65
2023-03-13T03:54:43.473Z,6.57
2023-03-13T03:57:10.206Z,4.20
2023-03-13T03:59:37.756Z,10.65
2023-03-13T04:02:07.655Z,5.00
2023-03-13T04:04:35.819Z,12.00
2023-03-13T04:07:09.513Z,15.35
2023-03-13T04:09:36.298Z,7.88
2023-03-13T04:12:05.156Z,7.15
2023-03-13T04:14:36.392Z,4.50
2023-03-13T04:17:06.203Z,4.80
2023-03-13T04:19:33.098Z,6.65
2023-03-13T04:22:00.327Z,8.27
2023-03-13T04:24:26.890Z,7.10
2023-03-13T04:26:56.054Z,12.63
2023-03-13T04:29:22.770Z,11.60
2023-03-13T04:32:04.022Z,6.38
2023-03-13T04:34:56.795Z,4.18
2023-03-13T04:37:42.124Z,4.28
2023-03-13T04:40:27.634Z,3.78
2023-03-13T04:43:20.628Z,8.45
2023-03-13T04:46:06.444Z,6.63
2023-03-13T04:48:51.336Z,8.10
2023-03-13T04:51:30.270Z,3.92
2023-03-13T04:54:17.105Z,4.68
2023-03-13T04:56:57.529Z,6.47
2023-03-13T04:59:53.789Z,4.85
2023-03-13T05:02:39.545Z,7.85
2023-03-13T05:05:26.550Z,10.15
2023-03-13T05:08:22.350Z,4.10
2023-03-13T05:11:09.209Z,7.22
2023-03-13T05:13:44.790Z,4.68
2023-03-13T05:16:25.154Z,9.52
2023-03-13T05:19:14.065Z,5.22
2023-03-13T05:21:59.247Z,4.55
2023-03-13T05:25:05.459Z,2.55
2023-03-13T05:27:49.038Z,5.38
2023-03-13T05:30:38.719Z,7.10
2023-03-13T05:33:23.827Z,6.13
2023-03-13T05:36:16.892Z,7.55
2023-03-13T05:39:04.302Z,7.78
2023-03-13T05:41:49.800Z,2.25
2023-03-13T05:44:35.313Z,6.57
2023-03-13T05:47:22.194Z,3.30
2023-03-13T05:50:07.614Z,4.95
2023-03-13T05:52:57.568Z,2.08
2023-03-13T05:55:40.925Z,2.55
2023-03-13T05:58:28.160Z,8.63
2023-03-13T06:01:33.175Z,8.80
2023-03-13T06:04:09.135Z,7.72
2023-03-13T06:06:37.409Z,2.80
2023-03-13T06:09:05.050Z,3.63
2023-03-13T06:11:33.388Z,3.65
2023-03-13T06:14:00.257Z,4.63
2023-03-13T06:16:41.437Z,1.95
2023-03-13T06:19:22.604Z,7.00
2023-03-13T06:21:49.303Z,4.03
2023-03-13T06:24:16.196Z,7.38
2023-03-13T06:26:43.059Z,6.30
2023-03-13T06:29:11.325Z,5.15
2023-03-13T06:31:38.145Z,3.85
2023-03-13T06:34:05.001Z,1.77
2023-03-13T06:36:31.719Z,2.63
2023-03-13T06:38:58.509Z,6.82
2023-03-13T06:41:24.999Z,5.93
2023-03-13T06:43:51.894Z,7.32
2023-03-13T06:46:24.372Z,4.38
2023-03-13T06:48:51.568Z,7.40
2023-03-13T06:51:24.917Z,3.75
2023-03-13T06:53:54.533Z,2.70
2023-03-13T06:56:22.186Z,3.67
2023-03-13T06:58:52.407Z,3.75
2023-03-13T11:31:16.175Z,1.42
2023-03-13T11:33:57.611Z,1.65
2023-03-13T11:36:39.521Z,1.20
2023-03-13T11:39:25.033Z,2.83
2023-03-13T11:42:12.197Z,6.72
2023-03-13T11:45:16.128Z,2.75
2023-03-13T11:47:51.906Z,3.13
2023-03-13T11:50:48.226Z,2.00
2023-03-13T11:53:23.970Z,5.93
2023-03-13T11:56:10.167Z,1.02
2023-03-13T11:58:58.346Z,2.25
2023-03-13T12:01:28.411Z,5.68
2023-03-13T12:04:07.405Z,5.35
2023-03-13T12:07:06.769Z,2.40
2023-03-13T12:09:41.894Z,6.50
2023-03-13T12:12:30.508Z,4.82
2023-03-13T12:15:05.069Z,2.65
2023-03-13T12:17:43.180Z,1.83
2023-03-13T12:20:26.863Z,1.80
2023-03-13T12:23:24.002Z,2.03
2023-03-13T12:26:07.678Z,0.98
2023-03-13T12:28:42.402Z,4.45
2023-03-13T12:31:40.681Z,3.67
2023-03-13T12:34:30.799Z,1.65
2023-03-13T12:37:07.453Z,2.55
2023-03-13T12:39:47.848Z,3.92
2023-03-13T12:42:26.627Z,4.88
2023-03-13T12:44:58.698Z,5.28
2023-03-13T12:47:32.839Z,1.80
2023-03-13T12:50:20.888Z,5.05
2023-03-13T12:52:54.727Z,2.08
2023-03-13T12:58:37.772Z,3.15
2023-03-13T13:01:06.877Z,3.88
2023-03-13T13:04:37.677Z,0.95
2023-03-13T13:07:20.143Z,2.50
2023-03-13T13:10:04.204Z,2.50
2023-03-13T13:12:31.335Z,5.13
2023-03-13T13:15:04.097Z,1.65
2023-03-13T13:17:39.997Z,2.15
2023-03-13T13:20:30.559Z,2.40
2023-03-13T13:23:16.652Z,2.72
2023-03-13T13:25:43.714Z,2.65
2023-03-13T13:28:23.993Z,5.32
2023-03-13T13:30:56.671Z,3.90
2023-03-13T13:33:30.951Z,3.55
2023-03-13T13:36:10.101Z,1.63
2023-03-13T13:38:42.870Z,2.63
2023-03-13T13:41:11.997Z,1.23
2023-03-13T13:43:47.064Z,3.70
2023-03-13T13:46:34.919Z,1.13
2023-03-13T13:49:17.557Z,2.08
2023-03-13T13:52:05.918Z,3.05
2023-03-13T13:54:43.498Z,1.98
2023-03-13T13:57:31.278Z,0.90
2023-03-13T14:00:21.219Z,3.25
2023-03-13T14:02:56.813Z,2.13
2023-03-13T14:05:38.599Z,1.65
2023-03-13T14:08:19.867Z,1.35
2023-03-13T14:10:55.307Z,1.85
2023-03-13T14:13:22.391Z,1.40
2023-03-13T14:15:53.461Z,4.35
2023-03-13T14:18:24.694Z,1.77
2023-03-13T14:20:59.901Z,2.80
2023-03-13T14:23:46.767Z,0.65
2023-03-13T14:26:18.244Z,1.55
2023-03-13T14:28:48.844Z,3.00
2023-03-13T14:31:38.647Z,0.98
2023-03-13T14:34:13.026Z,1.65
2023-03-13T14:36:57.076Z,0.88
2023-03-13T14:39:31.077Z,2.85
2023-03-13T14:42:04.448Z,1.17
2023-03-13T14:44:36.408Z,1.02
2023-03-13T14:47:09.334Z,1.13
2023-03-13T14:49:37.101Z,2.78
2023-03-13T14:52:23.982Z,2.10
2023-03-13T14:55:22.432Z,2.47
2023-03-13T14:58:20.617Z,1.15
2023-03-13T15:00:49.253Z,2.22
2023-03-13T15:03:16.773Z,0.73
2023-03-13T15:05:45.954Z,0.60
2023-03-13T15:08:22.111Z,2.42
2023-03-13T15:10:49.941Z,3.90
2023-03-13T15:13:19.570Z,1.13
2023-03-13T15:15:50.004Z,2.60
2023-03-13T15:18:24.451Z,1.73
2023-03-13T15:20:52.945Z,0.85
2023-03-13T15:23:20.533Z,3.00
2023-03-13T15:25:47.786Z,0.90
2023-03-13T15:28:17.311Z,6.32
2023-03-13T15:30:45.335Z,1.13
2023-03-13T15:33:17.453Z,2.47
2023-03-13T15:35:44.882Z,3.20
2023-03-13T15:38:29.858Z,1.15
2023-03-13T15:40:56.592Z,0.70
2023-03-13T15:43:24.817Z,1.75
2023-03-13T15:45:52.113Z,2.38
2023-03-13T15:48:24.419Z,3.22
2023-03-13T15:51:04.148Z,1.63
2023-03-13T15:53:35.346Z,3.22
2023-03-13T15:56:10.867Z,1.52
2023-03-13T15:58:38.005Z,7.93
2023-03-13T16:01:04.777Z,2.55
2023-03-13T16:03:31.649Z,2.15
2023-03-13T16:05:58.476Z,3.22
2023-03-13T16:08:36.071Z,2.70
2023-03-13T16:11:04.040Z,6.70
2023-03-13T16:13:31.419Z,3.63
2023-03-13T16:15:58.558Z,1.17
2023-03-13T16:18:25.676Z,1.40
2023-03-13T16:20:53.032Z,1.13
2023-03-13T16:23:19.814Z,0.40
2023-03-13T16:25:48.667Z,0.88
2023-03-13T16:28:16.206Z,2.13
2023-03-13T16:30:47.419Z,4.88
2023-03-13T16:33:14.295Z,0.85
2023-03-13T16:35:41.040Z,0.85
2023-03-13T16:38:11.246Z,1.48
2023-03-13T16:40:38.216Z,2.50
2023-03-13T16:43:04.819Z,0.75
2023-03-13T16:45:31.358Z,3.30
2023-03-13T16:47:58.169Z,4.18
2023-03-13T16:50:36.098Z,0.60
2023-03-13T16:53:03.634Z,2.55
2023-03-13T16:55:36.228Z,3.42
2023-03-13T16:58:04.123Z,3.50
2023-03-13T17:00:32.116Z,1.48
2023-03-13T17:02:59.231Z,1.55
2023-03-13T17:05:27.111Z,2.42
2023-03-13T17:07:54.397Z,4.55
2023-03-13T17:10:22.758Z,1.67
2023-03-13T17:12:50.119Z,3.28
2023-03-13T17:15:17.918Z,1.10
2023-03-13T17:17:48.899Z,2.30
2023-03-13T17:24:03.980Z,1.35
2023-03-13T17:26:36.781Z,3.47
2023-03-13T17:29:04.810Z,4.18
2023-03-13T17:31:37.165Z,8.82
2023-03-13T17:34:05.331Z,2.67
2023-03-13T17:36:32.836Z,2.47
2023-03-13T17:39:01.357Z,2.95
2023-03-13T17:41:30.707Z,4.72
2023-03-13T17:43:57.671Z,3.42
2023-03-13T17:46:46.303Z,3.95
2023-03-13T17:49:15.203Z,1.55
2023-03-13T17:51:44.604Z,1.88
2023-03-13T17:54:13.715Z,6.00
2023-03-13T17:56:42.140Z,3.10
2023-03-13T17:59:17.889Z,6.63
2023-03-13T18:01:45.207Z,1.45
2023-03-13T18:04:12.023Z,1.65
2023-03-13T18:06:47.142Z,0.85
2023-03-13T18:09:20.709Z,1.70
2023-03-13T18:11:48.915Z,2.58
2023-03-13T18:14:15.558Z,5.70
2023-03-13T18:16:48.148Z,3.20
2023-03-13T18:19:21.287Z,4.97
2023-03-13T18:24:17.979Z,1.52
2023-03-13T18:26:49.858Z,2.63
2023-03-13T18:29:26.481Z,1.30
2023-03-13T18:31:55.602Z,1.77
2023-03-13T18:34:23.516Z,4.05
2023-03-13T18:36:50.387Z,2.90
2023-03-13T18:39:18.742Z,1.98
2023-03-13T18:41:49.507Z,3.10
2023-03-13T18:44:18.850Z,1.88
2023-03-13T18:46:46.139Z,3.33
2023-03-13T18:49:20.231Z,1.10
2023-03-13T18:54:19.241Z,4.68
2023-03-13T18:56:47.264Z,1.50
2023-03-13T18:59:22.007Z,1.63
2023-03-13T19:01:49.417Z,4.05
2023-03-13T19:04:17.060Z,1.50
2023-03-13T19:06:45.852Z,2.63
2023-03-13T19:09:42.349Z,2.22
2023-03-13T19:12:07.705Z,1.38
2023-03-13T19:14:34.329Z,2.25
2023-03-13T19:17:01.015Z,2.20
2023-03-13T19:19:27.800Z,2.25
2023-03-13T19:21:57.529Z,9.40
2023-03-13T19:24:26.769Z,11.15
2023-03-13T19:26:58.798Z,2.97
2023-03-13T19:29:27.951Z,3.35
2023-03-13T19:31:55.023Z,5.32
2023-03-13T19:34:21.839Z,3.67
2023-03-13T19:36:49.738Z,1.50
2023-03-13T19:39:18.839Z,4.15
2023-03-13T19:41:47.953Z,2.13
2023-03-13T19:44:15.704Z,3.63
2023-03-13T19:46:43.422Z,1.35
2023-03-13T19:49:15.896Z,2.65
2023-03-13T19:51:42.996Z,3.90
2023-03-13T19:54:10.952Z,1.08
2023-03-13T19:56:39.756Z,1.83
2023-03-13T19:59:12.975Z,1.10
2023-03-13T20:01:39.566Z,3.08
2023-03-13T20:04:06.334Z,1.77
2023-03-13T20:06:34.670Z,5.10
2023-03-13T20:09:04.762Z,2.08
2023-03-13T20:11:31.555Z,5.25
2023-03-13T20:13:58.339Z,2.97
2023-03-13T20:16:27.883Z,4.72
2023-03-13T20:18:57.999Z,6.15
2023-03-13T20:21:29.323Z,2.38
2023-03-13T20:23:57.422Z,4.63
2023-03-13T20:26:26.151Z,1.38
2023-03-13T20:28:53.397Z,1.52
2023-03-13T20:31:23.340Z,4.47
2023-03-13T20:33:49.946Z,1.55
2023-03-13T20:36:19.236Z,2.60
2023-03-13T20:38:46.851Z,0.70
2023-03-13T20:41:14.067Z,0.55
2023-03-13T20:43:40.784Z,1.02
2023-03-13T20:46:07.430Z,1.58
2023-03-13T20:48:39.332Z,0.77
2023-03-13T20:51:07.863Z,0.65
2023-03-13T20:53:36.769Z,1.13
2023-03-13T20:56:06.662Z,3.13
2023-03-13T20:58:34.009Z,0.95
2023-03-13T21:01:01.975Z,0.50
2023-03-13T21:03:29.176Z,1.20
2023-03-13T21:05:55.669Z,0.70
2023-03-13T21:08:22.953Z,0.50
2023-03-13T21:10:49.637Z,0.70
2023-03-13T21:13:16.174Z,1.77
2023-03-13T21:15:43.151Z,0.98
2023-03-13T21:18:09.872Z,0.60
2023-03-13T21:20:37.800Z,3.63
2023-03-13T21:23:04.399Z,0.98
2023-03-13T21:25:31.073Z,1.98
2023-03-13T21:27:57.772Z,1.30
2023-03-13T21:30:24.542Z,0.70
2023-03-13T21:32:51.267Z,2.88
2023-03-13T21:35:18.173Z,2.28
2023-03-13T21:37:45.066Z,2.30
2023-03-13T21:40:12.621Z,1.15
2023-03-13T21:42:39.488Z,0.70
2023-03-13T21:45:07.408Z,0.30
2023-03-13T21:47:37.038Z,1.98
2023-03-13T21:50:08.568Z,1.75
2023-03-13T21:52:41.198Z,0.93
2023-03-13T21:55:11.978Z,0.90
2023-03-13T21:57:38.768Z,1.00
